createdAt,value
2019-02-21T00:03:33.221Z,2.59
2019-02-21T00:07:38.561Z,2.47
2019-02-21T00:11:43.988Z,2.48
2019-02-21T00:15:49.426Z,2.36
2019-02-21T00:19:54.785Z,2.37
2019-02-21T00:24:00.203Z,2.40
2019-02-21T00:28:05.597Z,2.39
2019-02-21T00:32:11.055Z,2.49
2019-02-21T00:36:16.393Z,2.58
2019-02-21T00:40:22.107Z,2.33
2019-02-21T00:44:27.772Z,2.27
2019-02-21T00:48:33.231Z,2.35
2019-02-21T00:52:38.739Z,2.21
2019-02-21T00:56:44.048Z,2.35
2019-02-21T01:00:49.451Z,2.38
2019-02-21T01:04:54.957Z,2.09
2019-02-21T01:09:00.494Z,2.21
2019-02-21T01:13:05.931Z,1.98
2019-02-21T01:17:11.305Z,2.03
2019-02-21T01:21:16.552Z,1.94
2019-02-21T01:25:21.977Z,1.78
2019-02-21T01:29:27.691Z,1.70
2019-02-21T01:33:33.397Z,1.74
2019-02-21T01:37:38.900Z,1.58
2019-02-21T01:41:44.423Z,1.59
2019-02-21T01:45:49.756Z,1.59
2019-02-21T01:49:55.161Z,1.46
2019-02-21T01:54:00.566Z,1.44
2019-02-21T01:58:05.930Z,1.43
2019-02-21T02:02:11.798Z,1.39
2019-02-21T02:06:17.231Z,1.40
2019-02-21T02:10:22.624Z,1.22
2019-02-21T02:14:28.007Z,1.16
2019-02-21T02:18:33.411Z,1.17
2019-02-21T02:22:39.450Z,1.15
2019-02-21T02:26:44.931Z,1.05
2019-02-21T02:30:50.708Z,1.07
2019-02-21T02:34:56.058Z,1.07
2019-02-21T02:39:01.841Z,1.33
2019-02-21T02:43:07.321Z,1.19
2019-02-21T02:47:13.001Z,1.19
2019-02-21T02:51:18.362Z,1.36
2019-02-21T02:55:23.692Z,1.33
2019-02-21T02:59:40.367Z,1.48
2019-02-21T03:03:36.723Z,1.39
2019-02-21T03:07:42.013Z,1.45
2019-02-21T03:11:47.429Z,1.53
2019-02-21T03:15:52.857Z,1.51
2019-02-21T03:19:59.138Z,1.64
2019-02-21T03:24:05.040Z,1.67
2019-02-21T03:28:10.339Z,1.70
2019-02-21T03:32:15.668Z,1.85
2019-02-21T03:36:21.147Z,1.88
2019-02-21T03:40:26.574Z,1.95
2019-02-21T03:44:31.897Z,1.86
2019-02-21T03:48:37.505Z,2.00
2019-02-21T03:52:43.003Z,2.04
2019-02-21T03:56:48.796Z,2.05
2019-02-21T04:00:54.260Z,2.12
2019-02-21T04:04:59.678Z,1.93
2019-02-21T04:09:08.351Z,1.93
2019-02-21T04:13:15.285Z,1.98
2019-02-21T04:17:20.767Z,1.90
2019-02-21T04:21:26.728Z,1.80
2019-02-21T04:25:32.121Z,1.67
2019-02-21T04:29:37.875Z,1.76
2019-02-21T04:33:43.190Z,1.64
2019-02-21T04:37:48.640Z,1.62
2019-02-21T04:41:54.253Z,1.58
2019-02-21T04:46:00.000Z,1.51
2019-02-21T04:50:05.809Z,1.42
2019-02-21T04:54:11.225Z,1.43
2019-02-21T04:58:16.585Z,1.48
2019-02-21T05:02:29.095Z,1.34
2019-02-21T05:06:29.553Z,1.39
2019-02-21T05:10:34.993Z,1.29
2019-02-21T05:14:40.334Z,1.26
2019-02-21T05:18:46.175Z,1.32
2019-02-21T05:22:51.695Z,1.27
2019-02-21T05:27:03.730Z,1.24
2019-02-21T05:31:31.370Z,1.32
2019-02-21T05:36:14.222Z,1.17
2019-02-21T05:40:37.156Z,1.18
2019-02-21T05:44:47.430Z,1.12
2019-02-21T05:49:04.841Z,1.13
2019-02-21T05:53:33.747Z,1.13
2019-02-21T05:57:52.314Z,1.25
2019-02-21T06:02:23.076Z,0.99
2019-02-21T06:06:48.379Z,0.88
2019-02-21T06:11:11.770Z,0.93
2019-02-21T06:15:32.009Z,0.86
2019-02-21T06:19:50.138Z,0.86
2019-02-21T06:24:23.797Z,0.97
2019-02-21T06:28:32.570Z,0.93
2019-02-21T06:32:40.669Z,0.87
2019-02-21T06:36:45.945Z,0.88
2019-02-21T06:40:51.234Z,0.91
2019-02-21T06:44:56.570Z,0.94
2019-02-21T06:49:02.067Z,0.89
2019-02-21T06:53:07.504Z,0.98
2019-02-21T06:57:12.829Z,1.04
2019-02-21T07:01:26.451Z,1.19
2019-02-21T07:05:25.495Z,1.24
2019-02-21T07:09:30.990Z,1.22
2019-02-21T07:13:36.330Z,1.49
2019-02-21T07:17:49.195Z,1.52
2019-02-21T07:21:49.316Z,1.58
2019-02-21T07:26:06.957Z,1.91
2019-02-21T07:30:19.984Z,1.90
2019-02-21T07:34:19.897Z,2.25
2019-02-21T07:38:25.576Z,2.45
2019-02-21T07:42:31.294Z,2.65
2019-02-21T07:46:36.839Z,2.46
2019-02-21T07:50:42.320Z,2.69
2019-02-21T07:54:50.857Z,2.89
2019-02-21T07:58:57.577Z,3.00
2019-02-21T08:03:02.381Z,2.93
2019-02-21T08:07:07.727Z,3.20
2019-02-21T08:11:17.180Z,3.38
2019-02-21T08:15:22.612Z,3.61
2019-02-21T08:19:28.087Z,3.99
2019-02-21T08:23:33.580Z,4.62
2019-02-21T08:27:38.953Z,4.91
2019-02-21T08:31:44.283Z,5.04
2019-02-21T08:35:49.648Z,5.14
2019-02-21T08:39:55.143Z,5.37
2019-02-21T08:44:00.526Z,5.52
2019-02-21T08:48:06.063Z,5.49
2019-02-21T08:52:12.696Z,5.57
2019-02-21T08:56:18.563Z,5.55
2019-02-21T09:00:24.027Z,5.57
2019-02-21T09:04:29.840Z,5.77
2019-02-21T09:08:37.035Z,6.03
2019-02-21T09:12:47.917Z,6.21
2019-02-21T09:16:50.405Z,6.33
2019-02-21T09:20:55.899Z,6.56
2019-02-21T09:25:02.810Z,6.68
2019-02-21T09:29:08.542Z,7.02
2019-02-21T09:33:17.334Z,7.46
2019-02-21T09:37:21.163Z,7.93
2019-02-21T09:41:28.704Z,8.01
2019-02-21T09:45:34.020Z,8.12
2019-02-21T09:49:39.279Z,8.38
2019-02-21T09:53:44.720Z,8.54
2019-02-21T09:57:50.163Z,8.49
2019-02-21T10:01:57.560Z,8.59
2019-02-21T10:06:02.619Z,8.63
2019-02-21T10:10:11.669Z,8.72
2019-02-21T10:14:17.019Z,8.77
2019-02-21T10:18:22.376Z,8.81
2019-02-21T10:22:27.737Z,8.88
2019-02-21T10:26:33.205Z,9.00
2019-02-21T10:30:38.648Z,9.23
2019-02-21T10:34:44.103Z,9.48
2019-02-21T10:38:49.721Z,9.57
2019-02-21T10:42:55.511Z,9.60
2019-02-21T10:47:01.015Z,10.11
2019-02-21T10:51:06.482Z,10.62
2019-02-21T10:55:12.144Z,10.99
2019-02-21T10:59:17.679Z,10.50
2019-02-21T11:03:23.055Z,10.61
2019-02-21T11:07:28.499Z,10.50
2019-02-21T11:11:33.917Z,10.81
2019-02-21T11:15:41.934Z,10.84
2019-02-21T11:19:46.708Z,11.23
2019-02-21T11:23:52.230Z,10.88
2019-02-21T11:27:57.678Z,11.34
2019-02-21T11:32:03.073Z,11.40
2019-02-21T11:36:08.549Z,11.34
2019-02-21T11:40:16.132Z,11.42
2019-02-21T11:44:21.693Z,11.88
2019-02-21T11:48:26.954Z,12.16
2019-02-21T11:52:32.435Z,11.82
2019-02-21T11:56:37.846Z,11.77
2019-02-21T12:00:43.227Z,12.21
2019-02-21T12:04:48.594Z,11.80
2019-02-21T12:08:54.101Z,12.63
2019-02-21T12:12:59.539Z,12.00
2019-02-21T12:17:04.972Z,12.22
2019-02-21T12:21:11.686Z,12.00
2019-02-21T12:25:17.817Z,11.45
2019-02-21T12:29:23.418Z,11.43
2019-02-21T12:33:28.838Z,11.85
2019-02-21T12:37:34.294Z,11.31
2019-02-21T12:41:39.754Z,11.93
2019-02-21T12:45:45.406Z,11.99
2019-02-21T12:49:50.710Z,12.28
2019-02-21T12:53:56.217Z,12.58
2019-02-21T12:58:01.605Z,12.47
2019-02-21T13:02:07.051Z,11.30
2019-02-21T13:06:12.497Z,11.87
2019-02-21T13:10:19.111Z,11.85
2019-02-21T13:14:24.617Z,11.36
2019-02-21T13:18:30.178Z,10.99
2019-02-21T13:22:35.726Z,10.89
2019-02-21T13:26:41.102Z,11.10
2019-02-21T13:30:46.645Z,10.90
2019-02-21T13:34:52.147Z,11.26
2019-02-21T13:38:58.057Z,11.39
2019-02-21T13:43:03.326Z,11.08
2019-02-21T13:47:08.901Z,10.86
2019-02-21T13:51:14.434Z,11.42
2019-02-21T13:55:19.923Z,11.71
2019-02-21T13:59:25.247Z,11.42
2019-02-21T14:03:30.733Z,11.21
2019-02-21T14:07:37.353Z,11.15
2019-02-21T14:11:42.954Z,11.17
2019-02-21T14:15:48.388Z,11.59
2019-02-21T14:19:53.766Z,11.85
2019-02-21T14:23:59.184Z,11.75
2019-02-21T14:28:04.618Z,11.83
2019-02-21T14:32:10.406Z,11.95
2019-02-21T14:36:19.105Z,11.82
2019-02-21T14:40:23.372Z,11.69
2019-02-21T14:44:28.765Z,11.96
2019-02-21T14:48:34.646Z,11.88
2019-02-21T14:52:40.108Z,12.09
2019-02-21T14:56:45.536Z,12.06
2019-02-21T15:00:50.955Z,11.62
2019-02-21T15:04:56.403Z,11.84
2019-02-21T15:09:01.837Z,11.81
2019-02-21T15:13:07.274Z,11.96
2019-02-21T15:17:12.950Z,12.03
2019-02-21T15:21:18.436Z,12.09
2019-02-21T15:25:23.873Z,11.98
2019-02-21T15:29:29.327Z,12.22
2019-02-21T15:33:34.913Z,11.99
2019-02-21T15:37:40.365Z,11.98
2019-02-21T15:41:45.986Z,11.88
2019-02-21T15:45:51.260Z,11.92
2019-02-21T15:49:56.824Z,11.80
2019-02-21T15:54:02.316Z,11.80
2019-02-21T15:58:07.790Z,11.69
2019-02-21T16:02:13.159Z,11.73
2019-02-21T16:06:18.626Z,11.72
2019-02-21T16:10:24.364Z,11.61
2019-02-21T16:14:30.060Z,11.60
2019-02-21T16:18:35.505Z,11.60
2019-02-21T16:22:40.954Z,11.53
2019-02-21T16:26:46.357Z,11.49
2019-02-21T16:30:51.761Z,11.48
2019-02-21T16:34:57.284Z,11.41
2019-02-21T16:39:04.426Z,11.33
2019-02-21T16:43:10.231Z,11.30
2019-02-21T16:47:15.656Z,11.25
2019-02-21T16:51:22.245Z,11.26
2019-02-21T16:55:28.233Z,11.28
2019-02-21T16:59:33.552Z,11.24
2019-02-21T17:03:38.954Z,11.24
2019-02-21T17:07:44.743Z,11.13
2019-02-21T17:11:50.136Z,11.13
2019-02-21T17:15:55.612Z,11.07
2019-02-21T17:20:01.424Z,10.99
2019-02-21T17:24:06.919Z,10.70
2019-02-21T17:28:12.344Z,10.52
2019-02-21T17:32:17.699Z,10.29
2019-02-21T17:36:23.315Z,10.22
2019-02-21T17:40:28.767Z,10.17
2019-02-21T17:44:34.333Z,10.19
2019-02-21T17:48:39.786Z,10.25
2019-02-21T17:52:45.490Z,10.25
2019-02-21T17:56:51.095Z,10.32
2019-02-21T18:00:56.564Z,10.21
2019-02-21T18:05:02.052Z,10.17
2019-02-21T18:09:08.628Z,10.08
2019-02-21T18:13:14.046Z,10.06
2019-02-21T18:17:19.470Z,10.22
2019-02-21T18:21:24.940Z,9.97
2019-02-21T18:25:45.207Z,9.97
2019-02-21T18:29:51.022Z,10.12
2019-02-21T18:33:57.065Z,10.02
2019-02-21T18:38:02.506Z,9.92
2019-02-21T18:42:08.118Z,9.93
2019-02-21T18:46:13.879Z,9.94
2019-02-21T18:50:19.657Z,9.87
2019-02-21T18:54:25.408Z,9.68
2019-02-21T18:58:30.896Z,9.75
2019-02-21T19:02:36.379Z,9.93
2019-02-21T19:06:41.923Z,9.80
2019-02-21T19:10:47.781Z,9.79
2019-02-21T19:14:53.177Z,9.87
2019-02-21T19:18:58.850Z,9.83
2019-02-21T19:23:04.373Z,9.86
2019-02-21T19:27:09.955Z,9.82
2019-02-21T19:31:19.213Z,9.88
2019-02-21T19:35:24.927Z,9.93
2019-02-21T19:39:30.300Z,9.83
2019-02-21T19:43:35.822Z,9.76
2019-02-21T19:47:41.176Z,9.75
2019-02-21T19:51:46.797Z,9.80
2019-02-21T19:55:52.279Z,9.80
2019-02-21T19:59:57.821Z,9.82
2019-02-21T20:04:03.163Z,9.78
2019-02-21T20:08:09.182Z,9.85
2019-02-21T20:12:14.597Z,9.83
2019-02-21T20:16:20.256Z,9.73
2019-02-21T20:20:25.706Z,9.74
2019-02-21T20:24:31.371Z,9.66
2019-02-21T20:28:36.909Z,9.64
2019-02-21T20:32:42.413Z,9.52
2019-02-21T20:36:50.954Z,9.45
2019-02-21T20:40:54.973Z,9.48
2019-02-21T20:45:01.836Z,9.39
2019-02-21T20:49:07.199Z,9.41
2019-02-21T20:53:12.678Z,9.34
2019-02-21T20:57:21.046Z,9.30
2019-02-21T21:01:26.588Z,9.14
2019-02-21T21:05:32.211Z,9.12
2019-02-21T21:09:37.680Z,9.07
2019-02-21T21:13:44.129Z,8.86
2019-02-21T21:17:49.722Z,8.88
2019-02-21T21:21:55.036Z,8.93
2019-02-21T21:26:00.407Z,8.88
2019-02-21T21:30:06.527Z,8.90
2019-02-21T21:34:12.221Z,8.76
2019-02-21T21:38:24.194Z,8.75
2019-02-21T21:42:24.608Z,8.72
2019-02-21T21:46:30.069Z,8.72
2019-02-21T21:50:35.634Z,8.68
2019-02-21T21:54:41.170Z,8.69
2019-02-21T21:58:46.536Z,8.58
2019-02-21T22:02:51.936Z,8.56
2019-02-21T22:06:57.364Z,8.59
2019-02-21T22:11:02.795Z,8.55
2019-02-21T22:15:09.804Z,8.56
2019-02-21T22:19:15.185Z,8.54
2019-02-21T22:23:20.868Z,8.57
2019-02-21T22:27:26.591Z,8.50
2019-02-21T22:31:31.945Z,8.50
2019-02-21T22:35:37.399Z,8.51
2019-02-21T22:39:42.734Z,8.49
2019-02-21T22:43:48.102Z,8.45
2019-02-21T22:47:53.526Z,8.49
2019-02-21T22:51:58.987Z,8.47
2019-02-21T22:56:04.573Z,8.44
2019-02-21T23:00:59.528Z,8.47
2019-02-21T23:06:00.877Z,8.49
2019-02-21T23:10:06.585Z,8.48
2019-02-21T23:14:12.180Z,8.48
2019-02-21T23:18:17.589Z,8.48
2019-02-21T23:22:22.955Z,8.48
2019-02-21T23:26:28.806Z,8.47
2019-02-21T23:30:34.481Z,8.43
2019-02-21T23:34:43.026Z,8.41
2019-02-21T23:38:48.474Z,8.41
2019-02-21T23:42:53.883Z,8.39
2019-02-21T23:46:59.315Z,8.38
2019-02-21T23:51:04.664Z,8.38
2019-02-21T23:55:10.112Z,8.41
2019-02-21T23:59:16.122Z,8.45
